Time;durP1;ratioP1;P1;durP2;ratioP2;P2;SDS_P1;SDS_P2;PMS_P1;PMS_P2;Temp;Humidity;BMP_temperature;BMP_pressure;BME280_temperature;BME280_humidity;BME280_pressure;Samples;Min_cycle;Max_cycle;Signal;HPM_P1;HPM_P2
2022/08/06 00:02:23;;;;;;;3.53;1.27;;;;;;;;;;5048900;28;20384;-73
2022/08/06 00:04:50;;;;;;;2.63;0.97;;;;;;;;;;5063967;28;20676;-73
2022/08/06 00:07:17;;;;;;;3.73;1.60;;;;;;;;;;5070016;28;20032;-73
2022/08/06 00:09:44;;;;;;;3.13;1.50;;;;;;;;;;5072319;28;20383;-72
2022/08/06 00:12:10;;;;;;;3.90;1.20;;;;;;;;;;5060798;28;20028;-73
2022/08/06 00:14:37;;;;;;;4.70;1.43;;;;;;;;;;5059475;28;20115;-72
2022/08/06 00:17:04;;;;;;;2.47;1.20;;;;;;;;;;5073566;28;20017;-72
2022/08/06 00:19:31;;;;;;;6.20;1.53;;;;;;;;;;5065382;28;20033;-72
2022/08/06 00:21:58;;;;;;;3.03;1.13;;;;;;;;;;5048310;28;20072;-72
2022/08/06 00:24:25;;;;;;;1.53;1.00;;;;;;;;;;5059439;28;20510;-72
2022/08/06 00:26:51;;;;;;;3.53;1.40;;;;;;;;;;5048264;28;20044;-73
2022/08/06 00:29:18;;;;;;;15.37;1.33;;;;;;;;;;5051915;28;20033;-72
2022/08/06 00:31:45;;;;;;;2.40;1.00;;;;;;;;;;5053310;28;20025;-72
2022/08/06 00:34:11;;;;;;;3.17;1.30;;;;;;;;;;5068845;28;20032;-72
2022/08/06 00:36:38;;;;;;;7.00;1.70;;;;;;;;;;5072607;28;20044;-72
2022/08/06 00:39:06;;;;;;;2.20;1.20;;;;;;;;;;5072992;28;20020;-72
2022/08/06 00:44:09;;;;;;;5.57;1.10;;;;;;;;;;5071249;23;20073;-71
2022/08/06 00:46:36;;;;;;;6.20;1.73;;;;;;;;;;5028038;28;20039;-71
2022/08/06 00:49:03;;;;;;;1.73;1.10;;;;;;;;;;5033177;28;20029;-71
2022/08/06 00:51:29;;;;;;;2.23;1.07;;;;;;;;;;5025546;28;20042;-71
2022/08/06 00:53:56;;;;;;;2.73;1.00;;;;;;;;;;5013456;28;20029;-71
2022/08/06 00:56:22;;;;;;;3.73;1.40;;;;;;;;;;5008239;28;20026;-71
2022/08/06 00:58:49;;;;;;;4.17;1.00;;;;;;;;;;5019099;28;20029;-71
2022/08/06 01:01:16;;;;;;;5.30;1.30;;;;;;;;;;5026072;28;20028;-70
2022/08/06 01:03:42;;;;;;;2.43;1.00;;;;;;;;;;5260831;23;20129;-72
2022/08/06 01:06:09;;;;;;;2.90;1.50;;;;;;;;;;4987423;28;20046;-72
2022/08/06 01:08:36;;;;;;;3.97;1.53;;;;;;;;;;4984998;28;20031;-71
2022/08/06 01:11:03;;;;;;;6.60;1.23;;;;;;;;;;4983689;28;20023;-71
2022/08/06 01:13:30;;;;;;;2.00;1.27;;;;;;;;;;4985584;28;20031;-68
2022/08/06 01:16:06;;;;;;;3.17;1.20;;;;;;;;;;4973975;28;20034;-72
2022/08/06 01:18:36;;;;;;;6.43;2.00;;;;;;;;;;4972880;28;20493;-71
2022/08/06 01:21:23;;;;;;;2.53;1.43;;;;;;;;;;4970116;28;20065;-70
2022/08/06 01:24:03;;;;;;;6.40;1.70;;;;;;;;;;4968730;28;20034;-70
2022/08/06 01:26:35;;;;;;;4.80;1.67;;;;;;;;;;4989554;28;20041;-69
2022/08/06 01:29:02;;;;;;;3.57;1.30;;;;;;;;;;4994190;28;20026;-70
2022/08/06 01:31:37;;;;;;;3.13;1.40;;;;;;;;;;4991253;28;20034;-68
2022/08/06 01:34:10;;;;;;;2.83;1.20;;;;;;;;;;4993917;28;20026;-67
2022/08/06 01:36:40;;;;;;;2.87;1.30;;;;;;;;;;4983988;28;20377;-69
2022/08/06 01:39:08;;;;;;;1.50;0.83;;;;;;;;;;4971730;28;20026;-71
2022/08/06 01:41:46;;;;;;;5.27;1.73;;;;;;;;;;4983373;28;20034;-70
2022/08/06 01:44:17;;;;;;;7.50;1.73;;;;;;;;;;4981578;28;20031;-68
2022/08/06 01:46:50;;;;;;;2.57;1.43;;;;;;;;;;4998880;28;20034;-72
2022/08/06 01:49:28;;;;;;;6.00;2.37;;;;;;;;;;5010523;28;20169;-70
2022/08/06 01:51:56;;;;;;;4.70;1.63;;;;;;;;;;4993373;28;20065;-68
2022/08/06 01:54:24;;;;;;;12.97;1.80;;;;;;;;;;4990283;28;20369;-70
2022/08/06 01:56:52;;;;;;;5.17;1.70;;;;;;;;;;4989224;28;20030;-72
2022/08/06 01:59:21;;;;;;;4.10;1.33;;;;;;;;;;4981416;28;20493;-72
2022/08/06 02:01:50;;;;;;;3.93;1.43;;;;;;;;;;4988377;28;20031;-71
2022/08/06 02:04:18;;;;;;;3.80;1.40;;;;;;;;;;4980284;28;20117;-71
2022/08/06 02:06:46;;;;;;;5.47;1.70;;;;;;;;;;4983048;28;20038;-71
2022/08/06 02:09:15;;;;;;;3.00;1.10;;;;;;;;;;4984040;28;20113;-68
2022/08/06 02:11:43;;;;;;;2.93;1.37;;;;;;;;;;4983673;28;20025;-71
2022/08/06 02:14:12;;;;;;;6.70;1.57;;;;;;;;;;4984083;28;20027;-71
2022/08/06 02:16:40;;;;;;;4.63;1.63;;;;;;;;;;4984637;28;20088;-68
2022/08/06 02:19:07;;;;;;;4.47;1.73;;;;;;;;;;4977334;28;20110;-72
2022/08/06 02:21:35;;;;;;;2.27;1.20;;;;;;;;;;4981042;28;20110;-71
2022/08/06 02:24:03;;;;;;;4.10;1.77;;;;;;;;;;4972832;28;20026;-68
2022/08/06 02:26:31;;;;;;;9.50;1.67;;;;;;;;;;4974219;28;20393;-71
2022/08/06 02:29:00;;;;;;;4.37;1.57;;;;;;;;;;4980295;28;20019;-69
2022/08/06 02:31:26;;;;;;;1.87;0.93;;;;;;;;;;4967644;28;20061;-70
2022/08/06 02:33:53;;;;;;;3.00;1.17;;;;;;;;;;4978671;28;20532;-67
2022/08/06 02:36:23;;;;;;;5.50;1.73;;;;;;;;;;4984745;28;20109;-68
2022/08/06 02:38:53;;;;;;;2.10;1.03;;;;;;;;;;4977642;28;20477;-70
2022/08/06 02:41:22;;;;;;;3.40;1.27;;;;;;;;;;4981069;28;20030;-72
2022/08/06 02:43:53;;;;;;;3.43;1.30;;;;;;;;;;4994435;28;20033;-69
2022/08/06 02:46:32;;;;;;;1.13;0.83;;;;;;;;;;4981401;28;20097;-71
2022/08/06 02:49:04;;;;;;;4.60;1.77;;;;;;;;;;4989944;28;20030;-70
2022/08/06 02:51:35;;;;;;;2.33;1.00;;;;;;;;;;4985563;28;20102;-70
2022/08/06 02:54:04;;;;;;;2.23;0.93;;;;;;;;;;4986618;28;20030;-71
2022/08/06 02:56:31;;;;;;;1.63;1.00;;;;;;;;;;4993047;28;20493;-68
2022/08/06 02:58:59;;;;;;;3.70;1.00;;;;;;;;;;4986809;28;20023;-69
2022/08/06 03:01:28;;;;;;;2.80;1.20;;;;;;;;;;4986226;28;20477;-71
2022/08/06 03:03:58;;;;;;;6.73;1.33;;;;;;;;;;4989039;28;20030;-72
2022/08/06 03:06:26;;;;;;;2.53;1.30;;;;;;;;;;4977993;28;20035;-72
2022/08/06 03:08:54;;;;;;;1.73;1.10;;;;;;;;;;4972027;28;20035;-72
2022/08/06 03:11:22;;;;;;;1.70;0.80;;;;;;;;;;4971911;28;20023;-71
2022/08/06 03:13:49;;;;;;;1.93;1.10;;;;;;;;;;4972772;28;20524;-72
2022/08/06 03:16:16;;;;;;;2.77;0.60;;;;;;;;;;4982680;28;20053;-72
2022/08/06 03:18:44;;;;;;;1.60;0.80;;;;;;;;;;4980431;28;20562;-71
2022/08/06 03:21:11;;;;;;;7.13;1.70;;;;;;;;;;4977951;28;20037;-71
2022/08/06 03:23:38;;;;;;;1.77;0.80;;;;;;;;;;4976736;28;20027;-71
2022/08/06 03:26:05;;;;;;;1.53;0.90;;;;;;;;;;4967183;28;20113;-71
2022/08/06 03:28:34;;;;;;;2.93;1.17;;;;;;;;;;4995919;28;20022;-72
2022/08/06 03:31:01;;;;;;;1.50;0.97;;;;;;;;;;4990434;28;20027;-71
2022/08/06 03:33:29;;;;;;;4.07;1.23;;;;;;;;;;4991019;28;20057;-71
2022/08/06 03:35:56;;;;;;;3.03;1.17;;;;;;;;;;4983790;28;20033;-71
2022/08/06 03:38:24;;;;;;;2.07;1.23;;;;;;;;;;4971248;28;20494;-72
2022/08/06 03:40:51;;;;;;;0.93;0.77;;;;;;;;;;4977639;28;20023;-71
2022/08/06 03:43:18;;;;;;;1.03;0.67;;;;;;;;;;4979521;28;20030;-71
2022/08/06 03:45:47;;;;;;;3.00;1.40;;;;;;;;;;4990785;28;20110;-72
2022/08/06 03:48:15;;;;;;;2.20;1.17;;;;;;;;;;4976565;28;20504;-71
2022/08/06 03:50:44;;;;;;;1.03;0.70;;;;;;;;;;4978056;28;20022;-72
2022/08/06 03:53:36;;;;;;;18.33;1.53;;;;;;;;;;4970455;28;20494;-72
2022/08/06 03:56:04;;;;;;;6.33;1.17;;;;;;;;;;4974142;28;20536;-72
2022/08/06 03:58:32;;;;;;;10.93;2.40;;;;;;;;;;4988614;28;21143;-72
2022/08/06 04:01:07;;;;;;;3.07;1.40;;;;;;;;;;4984489;28;20018;-71
2022/08/06 04:03:35;;;;;;;1.90;0.82;;;;;;;;;;4994853;28;20086;-72
2022/08/06 04:06:02;;;;;;;3.17;1.47;;;;;;;;;;4983161;28;20031;-71
2022/08/06 04:08:30;;;;;;;4.10;1.17;;;;;;;;;;4975779;28;20054;-72
2022/08/06 04:10:57;;;;;;;1.47;0.97;;;;;;;;;;4988933;28;20453;-72
2022/08/06 04:13:25;;;;;;;1.40;0.73;;;;;;;;;;4995082;28;20059;-71
2022/08/06 04:15:52;;;;;;;2.40;1.00;;;;;;;;;;4982802;28;20035;-71
2022/08/06 04:18:20;;;;;;;3.20;1.30;;;;;;;;;;4970960;28;20481;-71
2022/08/06 04:20:47;;;;;;;3.80;1.30;;;;;;;;;;4981573;28;20046;-72
2022/08/06 04:23:15;;;;;;;4.57;1.13;;;;;;;;;;4989992;28;20027;-71
2022/08/06 04:25:44;;;;;;;4.83;1.70;;;;;;;;;;4988024;28;20057;-72
2022/08/06 04:28:11;;;;;;;2.77;1.10;;;;;;;;;;4995058;28;20113;-72
2022/08/06 04:30:39;;;;;;;3.17;1.30;;;;;;;;;;4984925;28;20034;-72
2022/08/06 04:33:07;;;;;;;4.10;1.90;;;;;;;;;;4977196;28;20026;-71
2022/08/06 04:35:33;;;;;;;2.40;1.00;;;;;;;;;;4992423;28;20043;-71
2022/08/06 04:38:01;;;;;;;4.33;1.40;;;;;;;;;;4970524;28;20030;-71
2022/08/06 04:40:28;;;;;;;5.33;1.47;;;;;;;;;;4987345;28;20019;-71
2022/08/06 04:42:55;;;;;;;3.23;1.43;;;;;;;;;;4989784;28;20440;-72
2022/08/06 04:45:22;;;;;;;3.03;1.30;;;;;;;;;;4978587;28;20520;-72
2022/08/06 04:47:49;;;;;;;4.07;1.30;;;;;;;;;;4989639;28;20038;-72
2022/08/06 04:50:16;;;;;;;2.80;1.10;;;;;;;;;;4974377;28;20081;-73
2022/08/06 04:52:43;;;;;;;8.00;1.70;;;;;;;;;;4973442;28;20031;-72
2022/08/06 04:55:10;;;;;;;4.70;0.97;;;;;;;;;;4990257;28;20030;-73
2022/08/06 04:57:36;;;;;;;2.40;1.00;;;;;;;;;;4979650;28;20062;-72
2022/08/06 05:00:04;;;;;;;3.27;1.50;;;;;;;;;;4986969;28;20042;-73
2022/08/06 05:02:31;;;;;;;2.70;0.83;;;;;;;;;;4986275;28;20030;-73
2022/08/06 05:04:58;;;;;;;2.03;0.90;;;;;;;;;;4971700;28;20031;-73
2022/08/06 05:07:28;;;;;;;1.57;0.70;;;;;;;;;;4984612;28;20038;-72
2022/08/06 05:09:58;;;;;;;4.07;1.30;;;;;;;;;;4982699;28;20440;-72
2022/08/06 05:12:27;;;;;;;1.93;1.00;;;;;;;;;;4982986;28;20432;-72
2022/08/06 05:15:12;;;;;;;2.03;1.03;;;;;;;;;;4986392;28;20031;-73
2022/08/06 05:17:46;;;;;;;3.00;1.27;;;;;;;;;;4974227;28;20448;-72
2022/08/06 05:20:15;;;;;;;9.63;1.67;;;;;;;;;;4973909;28;20033;-72
2022/08/06 05:22:43;;;;;;;2.13;0.93;;;;;;;;;;4968596;28;20073;-72
2022/08/06 05:25:10;;;;;;;3.70;2.00;;;;;;;;;;4968703;28;20089;-72
2022/08/06 05:27:37;;;;;;;4.57;1.30;;;;;;;;;;4974006;28;20035;-72
2022/08/06 05:30:04;;;;;;;1.77;1.07;;;;;;;;;;4972066;28;20046;-72
2022/08/06 05:32:31;;;;;;;3.90;1.63;;;;;;;;;;4992505;28;20493;-72
2022/08/06 05:34:57;;;;;;;5.57;1.97;;;;;;;;;;4993346;28;20031;-72
2022/08/06 05:37:24;;;;;;;2.43;1.30;;;;;;;;;;4993010;28;20473;-72
2022/08/06 05:39:51;;;;;;;2.57;1.30;;;;;;;;;;4991802;28;20102;-72
2022/08/06 05:42:17;;;;;;;2.83;1.53;;;;;;;;;;4973846;28;20105;-72
2022/08/06 05:44:44;;;;;;;3.63;1.73;;;;;;;;;;4968539;28;20035;-73
2022/08/06 05:47:14;;;;;;;13.93;1.60;;;;;;;;;;4968361;28;20035;-72
2022/08/06 05:49:46;;;;;;;2.67;1.03;;;;;;;;;;4968287;28;20019;-72
2022/08/06 05:52:22;;;;;;;1.90;1.00;;;;;;;;;;4987454;28;20033;-72
2022/08/06 05:54:52;;;;;;;9.67;2.03;;;;;;;;;;4992018;28;20441;-72
2022/08/06 05:57:22;;;;;;;1.40;0.97;;;;;;;;;;4973005;28;20122;-72
2022/08/06 05:59:54;;;;;;;2.50;0.80;;;;;;;;;;4991274;28;20026;-72
2022/08/06 06:02:21;;;;;;;1.40;0.97;;;;;;;;;;4977631;28;20022;-72
2022/08/06 06:04:48;;;;;;;7.60;2.03;;;;;;;;;;4992420;28;20030;-72
2022/08/06 06:07:15;;;;;;;3.13;1.70;;;;;;;;;;4986835;28;20034;-72
2022/08/06 06:09:43;;;;;;;2.53;1.37;;;;;;;;;;4969707;28;20385;-72
2022/08/06 06:12:11;;;;;;;1.50;1.03;;;;;;;;;;4986255;28;20030;-72
2022/08/06 06:14:39;;;;;;;3.33;1.30;;;;;;;;;;4972947;28;20042;-72
2022/08/06 06:17:26;;;;;;;5.07;2.23;;;;;;;;;;4987902;28;20031;-72
2022/08/06 06:20:05;;;;;;;5.40;1.80;;;;;;;;;;4932444;28;20552;-72
2022/08/06 06:22:35;;;;;;;1.57;1.00;;;;;;;;;;4996896;28;20038;-72
2022/08/06 06:25:18;;;;;;;0.90;0.67;;;;;;;;;;4984741;28;20023;-72
2022/08/06 06:27:54;;;;;;;2.23;1.20;;;;;;;;;;4982354;28;20037;-72
2022/08/06 06:30:44;;;;;;;13.23;2.07;;;;;;;;;;4986113;28;20027;-72
2022/08/06 06:33:21;;;;;;;6.77;2.03;;;;;;;;;;4946146;28;20043;-73
2022/08/06 06:36:02;;;;;;;5.10;1.37;;;;;;;;;;4988509;28;20030;-72
2022/08/06 06:38:38;;;;;;;2.60;1.50;;;;;;;;;;4974779;28;20086;-72
2022/08/06 06:41:05;;;;;;;3.23;1.67;;;;;;;;;;4984620;28;20038;-72
2022/08/06 06:43:31;;;;;;;2.40;1.70;;;;;;;;;;4977963;28;20497;-72
2022/08/06 06:46:02;;;;;;;3.03;1.17;;;;;;;;;;4977662;28;20061;-72
2022/08/06 06:48:33;;;;;;;3.10;1.37;;;;;;;;;;4987223;28;20042;-72
2022/08/06 06:51:03;;;;;;;1.87;1.23;;;;;;;;;;4985222;28;20113;-72
2022/08/06 06:53:31;;;;;;;18.97;1.43;;;;;;;;;;4989277;28;20030;-72
2022/08/06 06:55:59;;;;;;;3.60;2.03;;;;;;;;;;4971523;28;20496;-72
2022/08/06 06:58:38;;;;;;;3.97;1.63;;;;;;;;;;4980164;28;20362;-72
2022/08/06 07:01:06;;;;;;;2.60;1.67;;;;;;;;;;4990898;28;20101;-72
2022/08/06 07:03:34;;;;;;;4.70;1.70;;;;;;;;;;4995337;28;20026;-72
2022/08/06 07:06:02;;;;;;;3.90;1.70;;;;;;;;;;4990618;28;20033;-72
2022/08/06 07:08:29;;;;;;;7.17;1.87;;;;;;;;;;4990595;28;20109;-72
2022/08/06 07:10:56;;;;;;;6.37;1.63;;;;;;;;;;4986148;28;20121;-72
2022/08/06 07:13:24;;;;;;;2.80;1.40;;;;;;;;;;4986013;28;20089;-73
2022/08/06 07:15:51;;;;;;;1.20;0.90;;;;;;;;;;4987549;28;20121;-72
2022/08/06 07:18:19;;;;;;;3.77;1.37;;;;;;;;;;4971613;28;20494;-72
2022/08/06 07:20:46;;;;;;;1.13;0.93;;;;;;;;;;4976539;28;20034;-72
2022/08/06 07:23:16;;;;;;;3.07;1.27;;;;;;;;;;4985566;28;20030;-72
2022/08/06 07:25:45;;;;;;;3.60;1.80;;;;;;;;;;4989708;28;20026;-72
2022/08/06 07:28:13;;;;;;;2.23;1.30;;;;;;;;;;4986090;28;20066;-72
2022/08/06 07:30:41;;;;;;;4.70;1.67;;;;;;;;;;4981887;28;20026;-72
2022/08/06 07:33:09;;;;;;;2.10;1.27;;;;;;;;;;4991729;28;20027;-72
2022/08/06 07:35:37;;;;;;;3.17;1.80;;;;;;;;;;4987036;28;20058;-72
2022/08/06 07:38:05;;;;;;;2.90;1.33;;;;;;;;;;4971630;28;20031;-72
2022/08/06 07:40:44;;;;;;;3.67;1.77;;;;;;;;;;4984632;28;20031;-72
2022/08/06 07:43:16;;;;;;;4.40;1.53;;;;;;;;;;4983251;28;20517;-72
2022/08/06 07:45:42;;;;;;;1.70;1.10;;;;;;;;;;4979313;28;20031;-72
2022/08/06 07:48:13;;;;;;;1.83;1.03;;;;;;;;;;4979590;28;20493;-72
2022/08/06 07:50:44;;;;;;;2.27;1.00;;;;;;;;;;4993442;28;20122;-72
2022/08/06 07:53:11;;;;;;;3.40;1.73;;;;;;;;;;4993352;28;20096;-72
2022/08/06 07:55:39;;;;;;;4.80;1.40;;;;;;;;;;4977734;28;20494;-72
2022/08/06 07:58:06;;;;;;;2.33;1.47;;;;;;;;;;4991242;28;20030;-72
2022/08/06 08:00:33;;;;;;;1.30;0.77;;;;;;;;;;4977210;28;20046;-72
2022/08/06 08:08:30;;;;;;;;;;;;;;;;;;4992922;28;20057;-72
2022/08/06 08:10:57;;;;;;;8.97;2.13;;;;;;;;;;4993912;28;20280;-72
2022/08/06 08:13:24;;;;;;;3.83;1.83;;;;;;;;;;4994834;28;20077;-72
2022/08/06 08:15:51;;;;;;;9.07;2.07;;;;;;;;;;4993799;28;20022;-72
2022/08/06 08:18:17;;;;;;;3.37;1.70;;;;;;;;;;4975211;28;20026;-72
2022/08/06 08:20:45;;;;;;;4.30;1.70;;;;;;;;;;4971979;28;20552;-72
2022/08/06 08:23:12;;;;;;;5.83;1.53;;;;;;;;;;4970747;28;20035;-72
2022/08/06 08:25:39;;;;;;;2.90;1.40;;;;;;;;;;4971083;28;20385;-72
2022/08/06 08:28:09;;;;;;;2.80;1.73;;;;;;;;;;4987273;28;20042;-72
2022/08/06 08:30:40;;;;;;;2.73;1.30;;;;;;;;;;4990422;28;20032;-71
2022/08/06 08:33:06;;;;;;;2.17;1.40;;;;;;;;;;4978320;28;20022;-72
2022/08/06 08:35:33;;;;;;;18.70;1.33;;;;;;;;;;4983143;28;20033;-72
2022/08/06 08:38:00;;;;;;;9.57;2.17;;;;;;;;;;4976353;28;20027;-72
2022/08/06 08:40:27;;;;;;;2.87;1.27;;;;;;;;;;4981474;28;20054;-72
2022/08/06 08:42:55;;;;;;;1.10;0.80;;;;;;;;;;4971628;28;20058;-72
2022/08/06 08:45:22;;;;;;;2.20;1.20;;;;;;;;;;4969322;28;20892;-72
2022/08/06 08:47:53;;;;;;;9.60;1.40;;;;;;;;;;4972800;28;20039;-72
2022/08/06 08:50:23;;;;;;;2.00;0.87;;;;;;;;;;4977989;28;20473;-71
2022/08/06 08:52:51;;;;;;;2.57;1.10;;;;;;;;;;4975463;28;20082;-71
2022/08/06 08:55:21;;;;;;;5.70;2.00;;;;;;;;;;4988443;28;20393;-71
2022/08/06 08:57:48;;;;;;;1.80;0.80;;;;;;;;;;4981055;28;20022;-72
2022/08/06 09:00:15;;;;;;;3.03;1.20;;;;;;;;;;4984288;28;20033;-72
2022/08/06 09:02:42;;;;;;;1.80;1.10;;;;;;;;;;4981814;28;20038;-72
2022/08/06 09:05:10;;;;;;;0.67;0.47;;;;;;;;;;4978049;28;20038;-72
2022/08/06 09:07:37;;;;;;;1.63;0.80;;;;;;;;;;4985933;28;20042;-72
2022/08/06 09:10:07;;;;;;;1.57;1.03;;;;;;;;;;4972066;28;20508;-72
2022/08/06 09:12:33;;;;;;;0.50;0.40;;;;;;;;;;4971996;28;20264;-72
2022/08/06 09:15:00;;;;;;;0.83;0.67;;;;;;;;;;4979157;28;20039;-72
2022/08/06 09:17:29;;;;;;;1.43;0.60;;;;;;;;;;4974950;28;20031;-72
2022/08/06 09:19:56;;;;;;;1.10;0.87;;;;;;;;;;4973908;28;20039;-72
2022/08/06 09:22:22;;;;;;;3.03;1.63;;;;;;;;;;4975115;28;20026;-72
2022/08/06 09:24:49;;;;;;;5.67;1.30;;;;;;;;;;4974769;28;20238;-72
2022/08/06 09:27:16;;;;;;;4.47;1.63;;;;;;;;;;4975442;28;20390;-72
2022/08/06 09:29:51;;;;;;;6.47;1.80;;;;;;;;;;4968352;28;20125;-72
2022/08/06 09:32:39;;;;;;;2.85;1.42;;;;;;;;;;4984152;28;20022;-72
2022/08/06 09:35:18;;;;;;;9.23;1.87;;;;;;;;;;4975598;28;20550;-71
2022/08/06 09:37:44;;;;;;;2.23;1.53;;;;;;;;;;4972583;28;20109;-72
2022/08/06 09:40:20;;;;;;;2.03;1.37;;;;;;;;;;4973793;28;20486;-72
2022/08/06 09:42:48;;;;;;;7.97;1.67;;;;;;;;;;4974595;28;20023;-72
2022/08/06 09:45:16;;;;;;;2.97;1.33;;;;;;;;;;4976412;28;20023;-71
2022/08/06 09:47:43;;;;;;;3.70;1.37;;;;;;;;;;4984247;28;20085;-72
2022/08/06 09:50:10;;;;;;;1.50;0.90;;;;;;;;;;4988890;28;20478;-72
2022/08/06 09:52:36;;;;;;;2.17;1.07;;;;;;;;;;4977104;28;20050;-71
2022/08/06 09:55:03;;;;;;;1.50;0.97;;;;;;;;;;4983939;28;20030;-72
2022/08/06 09:57:44;;;;;;;2.20;1.13;;;;;;;;;;4978449;28;20030;-71
2022/08/06 10:00:11;;;;;;;1.87;1.00;;;;;;;;;;4972381;28;20478;-71
2022/08/06 10:02:38;;;;;;;3.80;1.40;;;;;;;;;;4991269;28;20101;-72
2022/08/06 10:05:09;;;;;;;2.43;0.93;;;;;;;;;;4986659;28;20027;-72
2022/08/06 10:07:36;;;;;;;1.27;1.10;;;;;;;;;;4981922;28;20042;-71
2022/08/06 10:10:02;;;;;;;2.30;1.57;;;;;;;;;;4992798;28;20385;-71
2022/08/06 10:12:29;;;;;;;2.73;1.30;;;;;;;;;;4977154;28;20027;-71
2022/08/06 10:14:56;;;;;;;1.37;1.00;;;;;;;;;;4971788;28;20161;-71
2022/08/06 10:17:23;;;;;;;1.00;0.60;;;;;;;;;;4979270;28;20478;-71
2022/08/06 10:20:10;;;;;;;3.83;1.90;;;;;;;;;;4973099;28;20386;-72
2022/08/06 10:22:49;;;;;;;1.33;0.87;;;;;;;;;;4989953;28;20042;-71
2022/08/06 10:25:17;;;;;;;1.17;1.00;;;;;;;;;;4984998;28;20504;-72
2022/08/06 10:27:44;;;;;;;2.90;1.40;;;;;;;;;;4981876;28;20092;-72
2022/08/06 10:30:11;;;;;;;1.93;1.20;;;;;;;;;;4992184;28;20031;-72
2022/08/06 10:32:42;;;;;;;1.07;0.63;;;;;;;;;;4982456;28;20085;-71
2022/08/06 10:35:09;;;;;;;1.60;1.30;;;;;;;;;;4981707;28;20027;-72
2022/08/06 10:37:39;;;;;;;2.90;1.37;;;;;;;;;;4978787;28;20031;-71
2022/08/06 10:40:06;;;;;;;1.87;1.23;;;;;;;;;;4967692;28;20026;-71
2022/08/06 10:42:33;;;;;;;1.90;1.37;;;;;;;;;;4971241;28;20034;-71
2022/08/06 10:45:01;;;;;;;3.10;1.30;;;;;;;;;;4974166;28;20030;-71
2022/08/06 10:47:28;;;;;;;1.43;1.00;;;;;;;;;;4980961;28;20130;-71
2022/08/06 10:49:56;;;;;;;1.43;0.87;;;;;;;;;;4992559;28;20023;-72
2022/08/06 10:52:22;;;;;;;1.60;1.13;;;;;;;;;;4975629;28;20031;-71
2022/08/06 10:54:49;;;;;;;7.87;2.53;;;;;;;;;;4975274;28;20373;-71
2022/08/06 10:57:16;;;;;;;1.00;0.70;;;;;;;;;;4970503;28;20537;-70
2022/08/06 10:59:43;;;;;;;2.33;1.17;;;;;;;;;;4974712;28;20516;-70
2022/08/06 11:02:37;;;;;;;4.30;1.60;;;;;;;;;;4971788;28;20039;-70
2022/08/06 11:05:07;;;;;;;5.87;1.37;;;;;;;;;;4974406;28;20023;-71
2022/08/06 11:08:12;;;;;;;3.73;1.80;;;;;;;;;;4987035;28;20030;-70
2022/08/06 11:10:44;;;;;;;2.00;1.17;;;;;;;;;;4895586;29;20045;-70
2022/08/06 11:13:26;;;;;;;1.87;1.40;;;;;;;;;;4883748;29;20033;-71
2022/08/06 11:15:54;;;;;;;1.83;0.90;;;;;;;;;;4947998;28;20089;-71
2022/08/06 11:18:21;;;;;;;1.33;0.93;;;;;;;;;;4976681;28;20428;-70
2022/08/06 11:20:52;;;;;;;6.27;1.83;;;;;;;;;;4974462;28;20027;-70
2022/08/06 11:23:19;;;;;;;2.63;1.23;;;;;;;;;;4990019;28;20038;-70
2022/08/06 11:25:52;;;;;;;3.47;1.70;;;;;;;;;;4986454;28;20038;-70
2022/08/06 11:28:21;;;;;;;0.87;0.70;;;;;;;;;;4988245;28;20034;-70
2022/08/06 11:30:49;;;;;;;2.57;1.00;;;;;;;;;;4993911;28;20516;-71
2022/08/06 11:33:19;;;;;;;1.20;0.90;;;;;;;;;;4995299;28;20081;-70
2022/08/06 11:35:48;;;;;;;2.77;1.30;;;;;;;;;;4987662;28;20031;-70
2022/08/06 11:38:17;;;;;;;0.63;0.57;;;;;;;;;;4986674;28;21352;-70
2022/08/06 11:40:57;;;;;;;2.53;1.23;;;;;;;;;;4985661;28;20549;-70
2022/08/06 11:43:41;;;;;;;1.90;1.20;;;;;;;;;;4979145;28;20092;-70
2022/08/06 11:46:18;;;;;;;2.58;1.88;;;;;;;;;;4979323;28;20073;-71
2022/08/06 11:49:03;;;;;;;3.27;1.50;;;;;;;;;;4984592;28;20072;-70
2022/08/06 11:51:40;;;;;;;0.77;0.60;;;;;;;;;;4986949;28;20027;-71
2022/08/06 11:54:26;;;;;;;1.00;0.73;;;;;;;;;;4975481;28;20116;-70
2022/08/06 11:57:02;;;;;;;1.83;1.38;;;;;;;;;;4977750;28;20029;-70
2022/08/06 11:59:29;;;;;;;2.90;1.40;;;;;;;;;;4992972;28;20030;-70
2022/08/06 12:01:57;;;;;;;2.80;1.23;;;;;;;;;;4978939;28;20031;-70
2022/08/06 12:04:35;;;;;;;1.07;0.80;;;;;;;;;;4978099;28;20038;-70
2022/08/06 12:07:21;;;;;;;2.90;1.40;;;;;;;;;;4971568;28;20027;-70
2022/08/06 12:10:01;;;;;;;2.00;1.27;;;;;;;;;;4970901;28;20034;-70
2022/08/06 12:12:31;;;;;;;10.07;1.40;;;;;;;;;;4969624;28;20114;-71
2022/08/06 12:14:59;;;;;;;5.17;0.93;;;;;;;;;;4977211;28;20030;-70
2022/08/06 12:17:27;;;;;;;0.73;0.50;;;;;;;;;;4984421;28;20382;-70
2022/08/06 12:19:55;;;;;;;2.17;1.10;;;;;;;;;;4975366;28;20038;-70
2022/08/06 12:22:23;;;;;;;0.97;0.63;;;;;;;;;;4987064;28;20030;-70
2022/08/06 12:24:50;;;;;;;1.93;1.33;;;;;;;;;;4992616;28;20469;-71
2022/08/06 12:27:18;;;;;;;1.60;0.90;;;;;;;;;;4986509;28;20424;-70
2022/08/06 12:29:45;;;;;;;0.77;0.53;;;;;;;;;;4987207;28;20034;-71
2022/08/06 12:32:31;;;;;;;2.57;1.37;;;;;;;;;;4970989;28;20035;-71
2022/08/06 12:34:59;;;;;;;1.60;1.30;;;;;;;;;;4988151;28;20261;-70
2022/08/06 12:37:42;;;;;;;1.37;0.67;;;;;;;;;;4975938;28;20264;-70
2022/08/06 12:40:29;;;;;;;0.87;0.80;;;;;;;;;;4977727;28;20023;-70
2022/08/06 12:43:09;;;;;;;2.43;1.00;;;;;;;;;;4993888;28;20323;-70
2022/08/06 12:45:35;;;;;;;2.27;1.27;;;;;;;;;;4988601;28;20360;-70
2022/08/06 12:48:04;;;;;;;0.97;0.73;;;;;;;;;;4991700;28;20295;-70
2022/08/06 12:50:31;;;;;;;1.37;1.00;;;;;;;;;;4985248;28;20303;-70
2022/08/06 12:53:04;;;;;;;2.97;1.50;;;;;;;;;;4969397;28;20324;-70
2022/08/06 12:55:35;;;;;;;1.73;1.13;;;;;;;;;;4955826;28;20617;-70
2022/08/06 12:58:02;;;;;;;1.47;1.13;;;;;;;;;;4983836;28;20026;-70
2022/08/06 13:00:30;;;;;;;1.93;1.40;;;;;;;;;;4986192;28;20339;-70
2022/08/06 13:02:57;;;;;;;1.90;1.03;;;;;;;;;;4974997;28;20319;-70
2022/08/06 13:05:27;;;;;;;5.83;1.47;;;;;;;;;;4977258;28;20276;-70
2022/08/06 13:07:55;;;;;;;4.13;2.10;;;;;;;;;;4993122;28;20089;-70
2022/08/06 13:10:22;;;;;;;3.17;1.33;;;;;;;;;;4988399;28;20280;-70
2022/08/06 13:12:59;;;;;;;5.50;1.63;;;;;;;;;;4985832;28;20031;-70
2022/08/06 13:15:26;;;;;;;18.13;2.00;;;;;;;;;;4984187;28;20037;-71
2022/08/06 13:18:13;;;;;;;3.00;1.57;;;;;;;;;;4969148;28;20023;-70
2022/08/06 13:20:44;;;;;;;1.97;1.43;;;;;;;;;;4971648;28;20019;-70
2022/08/06 13:23:11;;;;;;;2.90;1.47;;;;;;;;;;4984869;28;20324;-70
2022/08/06 13:25:46;;;;;;;2.70;1.40;;;;;;;;;;4977897;28;20024;-70
2022/08/06 13:28:17;;;;;;;3.60;1.98;;;;;;;;;;4977229;28;20379;-71
2022/08/06 13:30:44;;;;;;;1.20;0.93;;;;;;;;;;4973865;28;20081;-70
2022/08/06 13:33:15;;;;;;;2.67;1.33;;;;;;;;;;4980605;28;20056;-70
2022/08/06 13:35:42;;;;;;;1.20;0.80;;;;;;;;;;4970205;28;20027;-70
2022/08/06 13:38:12;;;;;;;0.70;0.70;;;;;;;;;;4968219;28;20030;-70
2022/08/06 13:40:43;;;;;;;0.70;0.50;;;;;;;;;;4984038;28;20062;-71
2022/08/06 13:43:10;;;;;;;1.43;0.53;;;;;;;;;;4981837;28;20538;-70
2022/08/06 13:45:37;;;;;;;6.30;1.30;;;;;;;;;;4983948;28;20030;-70
2022/08/06 13:48:07;;;;;;;1.80;0.93;;;;;;;;;;4992926;28;20117;-71
2022/08/06 13:50:37;;;;;;;3.10;1.80;;;;;;;;;;4982260;28;20015;-70
2022/08/06 13:53:05;;;;;;;26.63;2.10;;;;;;;;;;4973017;28;20097;-70
2022/08/06 13:55:31;;;;;;;10.80;2.33;;;;;;;;;;4980609;28;20062;-70
2022/08/06 13:57:58;;;;;;;6.20;2.20;;;;;;;;;;4986831;28;20409;-70
2022/08/06 14:00:25;;;;;;;6.90;1.93;;;;;;;;;;4979049;28;20548;-69
2022/08/06 14:02:52;;;;;;;1.60;0.93;;;;;;;;;;4980329;28;20054;-69
2022/08/06 14:05:19;;;;;;;1.10;0.80;;;;;;;;;;4979626;28;20066;-70
2022/08/06 14:07:46;;;;;;;2.53;1.33;;;;;;;;;;4983816;28;20433;-69
2022/08/06 14:10:12;;;;;;;3.50;2.27;;;;;;;;;;4985352;28;20065;-68
2022/08/06 14:12:39;;;;;;;4.97;2.30;;;;;;;;;;4985408;28;20027;-68
2022/08/06 14:15:06;;;;;;;4.37;2.60;;;;;;;;;;4978317;28;20054;-68
2022/08/06 14:17:33;;;;;;;6.13;3.20;;;;;;;;;;4986507;28;20033;-69
2022/08/06 14:20:00;;;;;;;3.77;2.80;;;;;;;;;;4973337;28;20077;-69
2022/08/06 14:22:27;;;;;;;1.93;1.33;;;;;;;;;;4978062;28;20054;-69
2022/08/06 14:24:53;;;;;;;3.87;2.13;;;;;;;;;;4971500;28;20031;-69
2022/08/06 14:27:21;;;;;;;3.07;1.50;;;;;;;;;;4985457;28;20493;-69
2022/08/06 14:29:48;;;;;;;16.17;2.20;;;;;;;;;;4973335;28;20105;-69
2022/08/06 14:32:14;;;;;;;3.13;1.60;;;;;;;;;;4980676;28;20041;-68
2022/08/06 14:34:42;;;;;;;8.67;2.17;;;;;;;;;;4981582;28;20022;-69
2022/08/06 14:37:09;;;;;;;2.53;1.97;;;;;;;;;;4988203;28;20496;-69
2022/08/06 14:39:36;;;;;;;4.10;1.90;;;;;;;;;;4975870;28;20027;-69
2022/08/06 14:44:57;;;;;;;2.85;1.60;;;;;;;;;;4983230;28;20050;-69
2022/08/06 14:47:25;;;;;;;1.50;1.17;;;;;;;;;;4974802;28;20151;-69
2022/08/06 14:49:52;;;;;;;1.73;0.93;;;;;;;;;;4988975;28;20029;-69
2022/08/06 14:52:19;;;;;;;8.03;1.40;;;;;;;;;;4976601;28;20026;-69
2022/08/06 14:54:46;;;;;;;2.17;1.47;;;;;;;;;;4988316;28;20489;-69
2022/08/06 14:57:12;;;;;;;3.27;2.00;;;;;;;;;;4985903;28;20450;-69
2022/08/06 14:59:39;;;;;;;3.37;1.50;;;;;;;;;;4979702;28;20026;-70
2022/08/06 15:02:07;;;;;;;7.73;2.47;;;;;;;;;;4985113;28;20563;-69
2022/08/06 15:04:33;;;;;;;11.60;2.23;;;;;;;;;;4980729;28;20014;-69
2022/08/06 15:07:00;;;;;;;7.77;2.27;;;;;;;;;;4984528;28;20030;-69
2022/08/06 15:09:27;;;;;;;20.00;2.33;;;;;;;;;;4974214;28;20378;-69